createdAt,value
2023-02-15T00:01:52.979Z,2.98
2023-02-15T00:04:21.412Z,3.06
2023-02-15T00:06:48.813Z,3.09
2023-02-15T00:09:15.661Z,3.09
2023-02-15T00:12:01.155Z,3.09
2023-02-15T00:14:28.046Z,3.10
2023-02-15T00:16:55.869Z,3.09
2023-02-15T00:19:28.640Z,3.09
2023-02-15T00:21:56.795Z,3.15
2023-02-15T00:24:23.815Z,3.12
2023-02-15T00:26:51.089Z,3.10
2023-02-15T00:29:19.549Z,3.08
2023-02-15T00:31:47.088Z,3.03
2023-02-15T00:34:14.097Z,3.01
2023-02-15T00:36:42.314Z,2.99
2023-02-15T00:39:09.453Z,2.99
2023-02-15T00:41:36.695Z,3.00
2023-02-15T00:44:04.266Z,2.97
2023-02-15T00:46:31.629Z,2.93
2023-02-15T00:49:00.874Z,2.91
2023-02-15T00:51:28.407Z,2.89
2023-02-15T00:53:55.290Z,2.81
2023-02-15T00:56:22.517Z,2.83
2023-02-15T00:58:49.616Z,2.78
2023-02-15T01:01:18.170Z,2.75
2023-02-15T01:03:47.004Z,2.73
2023-02-15T01:06:15.221Z,2.70
2023-02-15T01:08:44.067Z,2.67
2023-02-15T01:11:12.708Z,2.65
2023-02-15T01:13:42.827Z,2.61
2023-02-15T01:16:10.143Z,2.57
2023-02-15T01:18:37.148Z,2.53
2023-02-15T01:21:15.128Z,2.52
2023-02-15T01:23:44.470Z,2.49
2023-02-15T01:26:13.872Z,2.50
2023-02-15T01:28:40.776Z,2.52
2023-02-15T01:31:18.267Z,2.50
2023-02-15T01:33:46.367Z,2.48
2023-02-15T01:36:14.050Z,2.52
2023-02-15T01:38:41.096Z,2.46
2023-02-15T01:41:24.439Z,2.46
2023-02-15T01:43:58.642Z,2.47
2023-02-15T01:46:36.900Z,2.49
2023-02-15T01:49:06.286Z,2.48
2023-02-15T01:51:35.809Z,2.46
2023-02-15T01:54:06.915Z,2.46
2023-02-15T01:56:38.303Z,2.46
2023-02-15T01:59:09.168Z,2.44
2023-02-15T02:01:38.922Z,2.45
2023-02-15T02:04:05.887Z,2.42
2023-02-15T02:06:36.818Z,2.42
2023-02-15T02:09:03.791Z,2.38
2023-02-15T02:11:31.968Z,2.37
2023-02-15T02:13:59.018Z,2.34
2023-02-15T02:16:28.942Z,2.32
2023-02-15T02:19:14.602Z,2.30
2023-02-15T02:22:05.314Z,2.29
2023-02-15T02:24:32.108Z,2.32
2023-02-15T02:26:59.275Z,2.34
2023-02-15T02:29:38.511Z,2.32
2023-02-15T02:32:09.208Z,2.27
2023-02-15T02:34:55.028Z,2.28
2023-02-15T02:37:38.069Z,2.27
2023-02-15T02:40:20.057Z,2.22
2023-02-15T02:42:55.830Z,2.19
2023-02-15T02:45:22.665Z,2.18
2023-02-15T02:47:52.554Z,2.13
2023-02-15T02:50:23.305Z,2.12
2023-02-15T02:52:52.530Z,2.08
2023-02-15T02:55:31.646Z,2.05
2023-02-15T02:58:18.856Z,2.04
2023-02-15T03:00:48.892Z,2.02
2023-02-15T03:03:24.517Z,2.00
2023-02-15T03:05:57.422Z,2.01
2023-02-15T03:08:25.666Z,2.01
2023-02-15T03:10:55.160Z,2.03
2023-02-15T03:13:24.999Z,2.04
2023-02-15T03:16:12.302Z,2.04
2023-02-15T03:18:43.974Z,2.05
2023-02-15T03:21:23.275Z,2.08
2023-02-15T03:23:55.492Z,2.09
2023-02-15T03:26:25.020Z,2.08
2023-02-15T03:28:55.116Z,2.09
2023-02-15T03:31:24.574Z,2.11
2023-02-15T03:33:55.766Z,2.10
2023-02-15T03:36:33.140Z,2.10
2023-02-15T03:39:11.698Z,2.09
2023-02-15T03:41:42.585Z,2.10
2023-02-15T03:44:15.923Z,2.08
2023-02-15T03:47:01.658Z,2.09
2023-02-15T03:49:31.845Z,2.07
2023-02-15T03:51:59.998Z,2.06
2023-02-15T03:54:44.527Z,2.05
2023-02-15T03:57:33.618Z,2.03
2023-02-15T04:00:20.017Z,2.02
2023-02-15T04:03:05.530Z,2.01
2023-02-15T04:05:33.067Z,2.01
2023-02-15T04:08:02.356Z,2.02
2023-02-15T04:10:48.197Z,2.03
2023-02-15T04:13:17.253Z,2.05
2023-02-15T04:16:03.214Z,2.05
2023-02-15T04:18:50.365Z,2.05
2023-02-15T04:21:36.099Z,2.07
2023-02-15T04:24:21.978Z,2.06
2023-02-15T04:26:49.185Z,2.13
2023-02-15T04:29:16.436Z,2.14
2023-02-15T04:31:44.024Z,2.16
2023-02-15T04:34:13.393Z,2.15
2023-02-15T04:36:40.888Z,2.15
2023-02-15T04:39:07.993Z,2.17
2023-02-15T04:41:35.405Z,2.24
2023-02-15T04:44:02.648Z,2.24
2023-02-15T04:46:29.827Z,2.29
2023-02-15T04:48:57.120Z,2.31
2023-02-15T04:51:24.714Z,2.31
2023-02-15T04:53:53.544Z,2.33
2023-02-15T04:56:21.587Z,2.32
2023-02-15T04:58:49.164Z,2.31
2023-02-15T05:01:16.545Z,2.39
2023-02-15T05:03:43.528Z,2.37
2023-02-15T05:06:10.691Z,2.38
2023-02-15T05:08:37.874Z,2.36
2023-02-15T05:11:05.070Z,2.36
2023-02-15T05:13:31.938Z,2.33
2023-02-15T05:15:59.292Z,2.29
2023-02-15T05:18:26.236Z,2.27
2023-02-15T05:20:55.784Z,2.27
2023-02-15T05:23:22.624Z,2.24
2023-02-15T05:26:08.438Z,2.22
2023-02-15T05:28:36.725Z,2.19
2023-02-15T05:31:04.191Z,2.19
2023-02-15T05:33:32.049Z,2.17
2023-02-15T05:36:00.108Z,2.14
2023-02-15T05:38:28.272Z,2.15
2023-02-15T05:40:55.728Z,2.18
2023-02-15T05:43:23.031Z,2.19
2023-02-15T05:45:53.787Z,2.22
2023-02-15T05:48:22.127Z,2.28
2023-02-15T05:50:58.085Z,2.27
2023-02-15T05:53:24.963Z,2.28
2023-02-15T05:55:52.073Z,2.27
2023-02-15T05:58:19.177Z,2.25
2023-02-15T06:00:46.499Z,2.25
2023-02-15T06:03:13.486Z,2.23
2023-02-15T06:05:40.660Z,2.23
2023-02-15T06:08:07.553Z,2.25
2023-02-15T06:10:34.784Z,2.27
2023-02-15T06:13:04.058Z,2.27
2023-02-15T06:15:31.318Z,2.27
2023-02-15T06:17:58.260Z,2.34
2023-02-15T06:20:25.714Z,2.33
2023-02-15T06:22:52.720Z,2.35
2023-02-15T06:25:19.973Z,2.43
2023-02-15T06:27:46.904Z,2.42
2023-02-15T06:30:14.615Z,2.49
2023-02-15T06:32:42.061Z,2.46
2023-02-15T06:35:09.362Z,2.52
2023-02-15T06:37:37.931Z,2.52
2023-02-15T06:40:05.563Z,2.51
2023-02-15T06:42:32.523Z,2.52
2023-02-15T06:45:01.472Z,2.55
2023-02-15T06:47:30.630Z,2.65
2023-02-15T06:49:58.620Z,2.68
2023-02-15T06:52:25.598Z,2.65
2023-02-15T06:54:55.211Z,2.69
2023-02-15T06:57:22.251Z,2.72
2023-02-15T06:59:49.540Z,2.75
2023-02-15T07:02:16.448Z,2.80
2023-02-15T07:04:43.778Z,2.82
2023-02-15T07:07:11.482Z,2.81
2023-02-15T07:09:39.141Z,2.86
2023-02-15T07:12:24.750Z,2.92
2023-02-15T07:14:52.092Z,2.97
2023-02-15T07:17:34.954Z,2.98
2023-02-15T07:20:04.934Z,2.94
2023-02-15T07:22:31.936Z,2.96
2023-02-15T07:24:59.338Z,3.01
2023-02-15T07:27:26.249Z,3.07
2023-02-15T07:29:53.421Z,3.09
2023-02-15T07:32:20.374Z,3.16
2023-02-15T07:34:47.647Z,3.18
2023-02-15T07:37:14.567Z,3.24
2023-02-15T07:39:41.775Z,3.32
2023-02-15T07:42:08.730Z,3.34
2023-02-15T07:44:39.547Z,3.31
2023-02-15T07:47:06.730Z,3.22
2023-02-15T07:49:34.090Z,3.19
2023-02-15T07:52:01.674Z,3.20
2023-02-15T07:54:29.107Z,3.27
2023-02-15T07:56:56.131Z,3.31
2023-02-15T07:59:23.419Z,3.40
2023-02-15T08:01:50.488Z,3.42
2023-02-15T08:04:19.154Z,3.44
2023-02-15T08:06:48.521Z,3.50
2023-02-15T08:09:15.648Z,3.49
2023-02-15T08:11:42.576Z,3.50
2023-02-15T08:14:14.142Z,3.56
2023-02-15T08:16:44.390Z,3.64
2023-02-15T08:19:11.625Z,3.64
2023-02-15T08:21:39.894Z,3.66
2023-02-15T08:24:08.379Z,3.66
2023-02-15T08:26:35.420Z,3.66
2023-02-15T08:29:03.449Z,3.65
2023-02-15T08:31:30.561Z,3.64
2023-02-15T08:33:58.362Z,3.61
2023-02-15T08:36:29.776Z,3.62
2023-02-15T08:39:00.774Z,3.62
2023-02-15T08:41:30.444Z,3.76
2023-02-15T08:43:59.239Z,3.82
2023-02-15T08:46:28.807Z,3.91
2023-02-15T08:48:56.172Z,3.93
2023-02-15T08:51:24.926Z,3.96
2023-02-15T08:53:53.270Z,4.15
2023-02-15T08:56:22.133Z,4.10
2023-02-15T08:58:49.423Z,4.13
2023-02-15T09:01:24.070Z,4.15
2023-02-15T09:03:57.886Z,4.21
2023-02-15T09:06:25.327Z,4.24
2023-02-15T09:08:52.855Z,4.33
2023-02-15T09:11:26.720Z,4.36
2023-02-15T09:13:58.363Z,4.41
2023-02-15T09:16:26.102Z,4.33
2023-02-15T09:18:53.803Z,4.34
2023-02-15T09:21:22.697Z,4.38
2023-02-15T09:23:51.189Z,4.35
2023-02-15T09:26:19.743Z,4.39
2023-02-15T09:28:47.417Z,4.44
2023-02-15T09:31:16.210Z,4.40
2023-02-15T09:33:44.379Z,4.35
2023-02-15T09:36:20.652Z,4.31
2023-02-15T09:38:48.522Z,4.30
2023-02-15T09:41:15.488Z,4.31
2023-02-15T09:43:58.095Z,4.36
2023-02-15T09:46:25.238Z,4.32
2023-02-15T09:48:57.038Z,4.37
2023-02-15T09:51:23.914Z,4.53
2023-02-15T09:53:57.192Z,4.55
2023-02-15T09:56:38.661Z,4.44
2023-02-15T09:59:24.256Z,4.50
2023-02-15T10:02:04.128Z,4.48
2023-02-15T10:04:37.582Z,4.53
2023-02-15T10:07:13.683Z,4.70
2023-02-15T10:09:40.813Z,4.76
2023-02-15T10:12:23.242Z,4.73
2023-02-15T10:14:50.457Z,4.79
2023-02-15T10:17:46.935Z,4.83
2023-02-15T10:20:23.918Z,4.91
2023-02-15T10:22:57.190Z,4.95
2023-02-15T10:25:27.703Z,4.95
2023-02-15T10:27:54.811Z,4.94
2023-02-15T10:30:43.281Z,4.93
2023-02-15T10:33:21.478Z,4.94
2023-02-15T10:36:02.693Z,4.85
2023-02-15T10:38:43.492Z,4.91
2023-02-15T10:41:13.737Z,4.91
2023-02-15T10:43:56.633Z,5.13
2023-02-15T10:46:33.747Z,5.05
2023-02-15T10:49:19.496Z,5.19
2023-02-15T10:52:05.543Z,5.20
2023-02-15T10:54:32.723Z,5.51
2023-02-15T10:57:07.161Z,5.55
2023-02-15T10:59:58.387Z,5.79
2023-02-15T11:02:44.580Z,6.00
2023-02-15T11:05:17.721Z,6.02
2023-02-15T11:07:48.271Z,6.08
2023-02-15T11:10:33.219Z,6.11
2023-02-15T11:13:04.934Z,6.03
2023-02-15T11:15:35.699Z,6.14
2023-02-15T11:18:07.522Z,6.39
2023-02-15T11:20:58.019Z,6.48
2023-02-15T11:23:28.243Z,6.26
2023-02-15T11:26:06.204Z,6.72
2023-02-15T11:28:37.901Z,7.05
2023-02-15T11:31:14.446Z,7.26
2023-02-15T11:33:45.442Z,7.34
2023-02-15T11:36:19.280Z,7.10
2023-02-15T11:38:51.998Z,7.42
2023-02-15T11:41:21.901Z,7.11
2023-02-15T11:43:56.081Z,6.59
2023-02-15T11:46:25.647Z,6.66
2023-02-15T11:48:52.828Z,6.60
2023-02-15T11:51:23.741Z,6.95
2023-02-15T11:53:52.628Z,7.05
2023-02-15T11:56:21.280Z,6.97
2023-02-15T11:58:51.709Z,6.73
2023-02-15T12:01:36.169Z,6.68
2023-02-15T12:04:03.520Z,6.78
2023-02-15T12:06:35.594Z,6.95
2023-02-15T12:09:06.135Z,6.97
2023-02-15T12:11:42.354Z,6.73
2023-02-15T12:14:12.734Z,6.76
2023-02-15T12:16:47.333Z,6.88
2023-02-15T12:19:22.632Z,6.70
2023-02-15T12:21:50.843Z,6.66
2023-02-15T12:24:33.416Z,6.54
2023-02-15T12:27:03.579Z,6.14
2023-02-15T12:29:33.459Z,5.83
2023-02-15T12:32:00.596Z,5.81
2023-02-15T12:34:31.024Z,5.59
2023-02-15T12:37:01.294Z,5.60
2023-02-15T12:39:32.475Z,5.24
2023-02-15T12:42:04.934Z,5.33
2023-02-15T12:44:34.023Z,5.28
2023-02-15T12:47:01.158Z,5.45
2023-02-15T12:49:29.551Z,5.43
2023-02-15T12:51:58.066Z,5.10
2023-02-15T12:54:39.672Z,5.09
2023-02-15T12:57:15.772Z,5.09
2023-02-15T13:00:04.191Z,5.09
2023-02-15T13:02:43.154Z,5.16
2023-02-15T13:05:25.332Z,4.92
2023-02-15T13:07:55.114Z,4.95
2023-02-15T13:10:27.770Z,5.02
2023-02-15T13:12:55.346Z,5.03
2023-02-15T13:15:32.108Z,5.00
2023-02-15T13:18:00.214Z,4.80
2023-02-15T13:20:28.856Z,4.85
2023-02-15T13:22:59.515Z,4.91
2023-02-15T13:25:29.517Z,4.96
2023-02-15T13:28:02.396Z,4.93
2023-02-15T13:30:33.756Z,4.89
2023-02-15T13:33:03.246Z,4.92
2023-02-15T13:35:40.678Z,4.86
2023-02-15T13:38:17.240Z,4.86
2023-02-15T13:40:51.182Z,4.91
2023-02-15T13:43:21.243Z,4.94
2023-02-15T13:45:57.915Z,4.91
2023-02-15T13:48:31.470Z,4.87
2023-02-15T13:51:04.198Z,4.80
2023-02-15T13:53:31.306Z,4.86
2023-02-15T13:56:03.644Z,4.81
2023-02-15T13:58:31.290Z,4.81
2023-02-15T14:01:01.796Z,4.84
2023-02-15T14:03:28.881Z,4.66
2023-02-15T14:06:15.390Z,4.63
2023-02-15T14:08:55.951Z,4.52
2023-02-15T14:11:23.189Z,4.58
2023-02-15T14:13:53.238Z,4.66
2023-02-15T14:16:39.504Z,4.69
2023-02-15T14:19:06.518Z,4.68
2023-02-15T14:21:44.892Z,4.55
2023-02-15T14:24:35.704Z,4.57
2023-02-15T14:27:15.443Z,4.54
2023-02-15T14:29:42.454Z,4.62
2023-02-15T14:32:12.059Z,4.64
2023-02-15T14:34:51.386Z,4.57
2023-02-15T14:37:36.497Z,4.51
2023-02-15T14:40:26.329Z,4.49
2023-02-15T14:43:26.354Z,4.51
2023-02-15T14:46:00.124Z,4.49
2023-02-15T14:48:32.552Z,4.51
2023-02-15T14:51:00.234Z,4.49
2023-02-15T14:53:30.862Z,4.46
2023-02-15T14:56:24.428Z,4.42
2023-02-15T14:58:53.297Z,4.40
2023-02-15T15:01:33.890Z,4.39
2023-02-15T15:04:04.221Z,4.35
2023-02-15T15:06:32.843Z,4.33
2023-02-15T15:09:02.412Z,4.24
2023-02-15T15:11:42.666Z,4.20
2023-02-15T15:14:11.839Z,4.15
2023-02-15T15:16:38.835Z,4.01
2023-02-15T15:19:10.810Z,3.96
2023-02-15T15:21:50.123Z,3.85
2023-02-15T15:24:43.851Z,3.76
2023-02-15T15:27:29.767Z,3.72
2023-02-15T15:29:57.094Z,3.66
2023-02-15T15:32:28.443Z,3.56
2023-02-15T15:35:02.448Z,3.44
2023-02-15T15:37:38.609Z,3.40
2023-02-15T15:40:21.663Z,3.31
2023-02-15T15:43:00.974Z,3.22
2023-02-15T15:45:31.356Z,3.08
2023-02-15T15:48:08.137Z,3.00
2023-02-15T15:50:36.077Z,2.91
2023-02-15T15:53:04.581Z,2.82
2023-02-15T15:55:33.742Z,2.72
2023-02-15T15:58:03.298Z,2.67
2023-02-15T16:00:46.197Z,2.55
2023-02-15T16:03:17.553Z,2.48
2023-02-15T16:05:45.008Z,2.43
2023-02-15T16:08:12.819Z,2.30
2023-02-15T16:10:41.382Z,2.27
2023-02-15T16:13:08.839Z,2.22
2023-02-15T16:15:59.844Z,2.14
2023-02-15T16:18:28.299Z,1.98
2023-02-15T16:20:58.308Z,1.93
2023-02-15T16:23:38.255Z,1.85
2023-02-15T16:26:11.730Z,1.71
2023-02-15T16:28:39.958Z,1.61
2023-02-15T16:31:17.126Z,1.65
2023-02-15T16:33:46.028Z,1.62
2023-02-15T16:36:21.473Z,1.53
2023-02-15T16:39:07.550Z,1.41
2023-02-15T16:41:35.885Z,1.31
2023-02-15T16:44:08.195Z,1.25
2023-02-15T16:46:47.431Z,1.11
2023-02-15T16:49:22.934Z,1.15
2023-02-15T16:51:58.240Z,1.03
2023-02-15T16:54:26.824Z,0.97
2023-02-15T16:56:54.738Z,0.92
2023-02-15T16:59:44.725Z,0.81
2023-02-15T17:02:40.122Z,0.71
2023-02-15T17:05:10.245Z,0.58
2023-02-15T17:07:50.470Z,0.48
2023-02-15T17:10:37.096Z,0.48
2023-02-15T17:13:11.465Z,0.35
2023-02-15T17:15:59.067Z,0.34
2023-02-15T17:18:29.097Z,0.33
2023-02-15T17:20:59.112Z,0.24
2023-02-15T17:23:30.100Z,0.27
2023-02-15T17:26:01.337Z,0.15
2023-02-15T17:28:34.324Z,0.12
2023-02-15T17:31:11.175Z,0.21
2023-02-15T17:33:43.649Z,0.09
2023-02-15T17:36:15.110Z,0.01
2023-02-15T17:39:05.055Z,-0.04
2023-02-15T17:41:35.745Z,-0.12
2023-02-15T17:44:10.033Z,-0.25
2023-02-15T17:46:41.506Z,-0.25
2023-02-15T17:49:17.588Z,-0.37
2023-02-15T17:51:45.552Z,-0.44
2023-02-15T17:54:32.967Z,-0.54
2023-02-15T17:57:06.159Z,-0.61
2023-02-15T17:59:36.304Z,-0.68
2023-02-15T18:02:24.602Z,-0.71
2023-02-15T18:05:11.221Z,-0.75
2023-02-15T18:07:57.624Z,-0.80
2023-02-15T18:10:44.920Z,-0.86
2023-02-15T18:13:15.349Z,-0.90
2023-02-15T18:15:45.005Z,-0.96
2023-02-15T18:18:13.842Z,-1.02
2023-02-15T18:20:45.281Z,-1.08
2023-02-15T18:23:16.453Z,-1.13
2023-02-15T18:25:49.752Z,-1.16
2023-02-15T18:28:18.829Z,-1.20
2023-02-15T18:30:47.463Z,-1.22
2023-02-15T18:33:35.135Z,-1.25
2023-02-15T18:36:04.302Z,-1.29
2023-02-15T18:38:32.749Z,-1.36
2023-02-15T18:41:07.833Z,-1.39
2023-02-15T18:43:35.538Z,-1.41
2023-02-15T18:46:09.497Z,-1.46
2023-02-15T18:48:37.779Z,-1.51
2023-02-15T18:51:19.276Z,-1.57
2023-02-15T18:53:48.067Z,-1.61
2023-02-15T18:56:18.805Z,-1.65
2023-02-15T18:58:53.177Z,-1.69
2023-02-15T19:01:22.624Z,-1.74
2023-02-15T19:03:53.841Z,-1.78
2023-02-15T19:06:26.731Z,-1.79
2023-02-15T19:08:55.048Z,-1.79
2023-02-15T19:11:28.420Z,-1.82
2023-02-15T19:13:57.357Z,-1.81
2023-02-15T19:16:33.231Z,-1.82
2023-02-15T19:19:01.596Z,-1.85
2023-02-15T19:21:33.201Z,-1.87
2023-02-15T19:24:07.517Z,-1.86
2023-02-15T19:26:45.274Z,-1.85
2023-02-15T19:29:16.153Z,-1.87
2023-02-15T19:31:44.786Z,-1.92
2023-02-15T19:34:19.265Z,-1.95
2023-02-15T19:36:55.569Z,-1.98
2023-02-15T19:39:31.384Z,-2.01
2023-02-15T19:41:59.905Z,-2.05
2023-02-15T19:44:28.215Z,-2.08
2023-02-15T19:46:58.683Z,-2.09
2023-02-15T19:49:35.570Z,-2.11
2023-02-15T19:52:04.048Z,-2.10
2023-02-15T19:54:36.164Z,-2.08
2023-02-15T19:57:06.029Z,-2.09
2023-02-15T19:59:41.181Z,-2.10
2023-02-15T20:02:20.815Z,-2.10
2023-02-15T20:04:49.258Z,-2.12
2023-02-15T20:07:27.819Z,-2.11
2023-02-15T20:09:56.565Z,-2.10
2023-02-15T20:12:26.847Z,-2.12
2023-02-15T20:14:56.052Z,-2.13
2023-02-15T20:17:24.799Z,-2.16
2023-02-15T20:19:53.009Z,-2.19
2023-02-15T20:22:26.218Z,-2.21
2023-02-15T20:24:58.201Z,-2.24
2023-02-15T20:27:31.305Z,-2.25
2023-02-15T20:30:00.945Z,-2.23
2023-02-15T20:32:36.350Z,-2.20
2023-02-15T20:35:05.319Z,-2.15
2023-02-15T20:37:34.283Z,-2.08
2023-02-15T20:40:04.944Z,-2.02
2023-02-15T20:42:33.234Z,-1.94
2023-02-15T20:45:01.713Z,-1.87
2023-02-15T20:47:35.998Z,-1.77
2023-02-15T20:50:04.209Z,-1.69
2023-02-15T20:52:34.558Z,-1.61
2023-02-15T20:55:03.024Z,-1.56
2023-02-15T20:57:31.471Z,-1.49
2023-02-15T21:00:02.185Z,-1.43
2023-02-15T21:02:32.070Z,-1.41
2023-02-15T21:05:01.274Z,-1.45
2023-02-15T21:07:29.784Z,-1.50
2023-02-15T21:10:00.108Z,-1.58
2023-02-15T21:12:30.519Z,-1.66
2023-02-15T21:14:58.528Z,-1.75
2023-02-15T21:17:27.136Z,-1.79
2023-02-15T21:19:54.983Z,-1.85
2023-02-15T21:22:25.078Z,-1.91
2023-02-15T21:24:55.549Z,-1.98
2023-02-15T21:27:24.131Z,-2.02
2023-02-15T21:29:52.860Z,-2.09
2023-02-15T21:32:21.842Z,-2.15
2023-02-15T21:34:49.872Z,-2.20
2023-02-15T21:37:30.704Z,-2.22
2023-02-15T21:39:58.908Z,-2.24
2023-02-15T21:42:47.270Z,-2.27
2023-02-15T21:45:36.010Z,-2.32
2023-02-15T21:48:04.203Z,-2.37
2023-02-15T21:50:50.585Z,-2.41
2023-02-15T21:53:21.578Z,-2.44
2023-02-15T21:55:49.111Z,-2.42
2023-02-15T21:58:21.552Z,-2.47
2023-02-15T22:00:49.254Z,-2.50
2023-02-15T22:03:16.528Z,-2.52
2023-02-15T22:05:43.735Z,-2.54
2023-02-15T22:08:14.775Z,-2.56
2023-02-15T22:10:42.379Z,-2.61
2023-02-15T22:13:13.493Z,-2.62
2023-02-15T22:15:41.900Z,-2.63
2023-02-15T22:18:18.355Z,-2.63
2023-02-15T22:20:45.332Z,-2.65
2023-02-15T22:23:12.882Z,-2.53
2023-02-15T22:25:39.813Z,-2.49
2023-02-15T22:28:16.450Z,-2.54
2023-02-15T22:30:45.644Z,-2.56
2023-02-15T22:33:23.858Z,-2.56
2023-02-15T22:35:51.087Z,-2.59
2023-02-15T22:38:18.825Z,-2.57
2023-02-15T22:40:46.846Z,-2.58
2023-02-15T22:43:25.107Z,-2.57
2023-02-15T22:45:52.901Z,-2.58
2023-02-15T22:48:22.083Z,-2.54
2023-02-15T22:50:49.025Z,-2.52
2023-02-15T22:53:16.332Z,-2.54
2023-02-15T22:55:43.869Z,-2.61
2023-02-15T22:58:16.227Z,-2.67
2023-02-15T23:00:43.699Z,-2.64
2023-02-15T23:03:15.548Z,-2.69
2023-02-15T23:05:42.547Z,-2.73
2023-02-15T23:08:12.322Z,-2.79
2023-02-15T23:10:40.096Z,-2.82
2023-02-15T23:13:25.733Z,-2.85
2023-02-15T23:15:54.913Z,-2.88
2023-02-15T23:18:42.438Z,-2.82
2023-02-15T23:21:15.501Z,-2.87
2023-02-15T23:23:44.593Z,-2.95
2023-02-15T23:26:22.321Z,-3.01
2023-02-15T23:28:50.575Z,-3.06
2023-02-15T23:31:20.795Z,-3.09
2023-02-15T23:33:52.984Z,-3.14
2023-02-15T23:36:37.547Z,-3.16
2023-02-15T23:39:34.351Z,-3.20
2023-02-15T23:42:02.862Z,-3.25
2023-02-15T23:44:30.630Z,-3.27
2023-02-15T23:46:59.933Z,-3.30
2023-02-15T23:49:27.118Z,-3.32
2023-02-15T23:51:55.082Z,-3.33
2023-02-15T23:54:23.520Z,-3.36
2023-02-15T23:56:52.648Z,-3.34
2023-02-15T23:59:24.215Z,-3.33
